createdAt,value
2022-10-17T00:01:24.555Z,101940.38
2022-10-17T00:03:51.222Z,101940.38
2022-10-17T00:06:17.827Z,101944.69
2022-10-17T00:08:45.216Z,101949.16
2022-10-17T00:11:18.041Z,101957.97
2022-10-17T00:13:46.092Z,101968.59
2022-10-17T00:16:12.816Z,101973.06
2022-10-17T00:18:39.443Z,101974.91
2022-10-17T00:21:06.262Z,101980.22
2022-10-17T00:23:33.886Z,101977.56
2022-10-17T00:26:05.534Z,101970.56
2022-10-17T00:28:32.688Z,101969.19
2022-10-17T00:31:00.672Z,101957.63
2022-10-17T00:33:28.484Z,101963.59
2022-10-17T00:36:07.189Z,101956.47
2022-10-17T00:38:33.922Z,101948.34
2022-10-17T00:41:00.559Z,101947.34
2022-10-17T00:43:27.322Z,101944.84
2022-10-17T00:45:53.904Z,101944.69
2022-10-17T00:48:23.327Z,101938.38
2022-10-17T00:50:50.563Z,101934.88
2022-10-17T00:53:18.282Z,101930.56
2022-10-17T00:55:54.355Z,101927.09
2022-10-17T00:58:21.483Z,101936.72
2022-10-17T01:00:48.425Z,101941.19
2022-10-17T01:03:15.101Z,101939.69
2022-10-17T01:05:43.169Z,101941.34
2022-10-17T01:08:10.118Z,101948.34
2022-10-17T01:11:18.724Z,101944.00
2022-10-17T01:13:58.563Z,101952.97
2022-10-17T01:16:40.057Z,101950.47
2022-10-17T01:19:35.143Z,101952.31
2022-10-17T01:22:31.392Z,101938.34
2022-10-17T01:25:34.889Z,101940.19
2022-10-17T01:28:14.871Z,101943.66
2022-10-17T01:31:08.781Z,101942.84
2022-10-17T01:33:48.710Z,101939.34
2022-10-17T01:36:36.190Z,101944.63
2022-10-17T01:39:22.725Z,101935.16
2022-10-17T01:42:01.306Z,101939.47
2022-10-17T01:44:39.373Z,101933.50
2022-10-17T01:47:09.217Z,101934.31
2022-10-17T01:49:37.907Z,101927.34
2022-10-17T01:52:08.984Z,101929.84
2022-10-17T01:54:56.338Z,101932.66
2022-10-17T01:57:54.086Z,101927.34
2022-10-17T02:00:26.214Z,101926.50
2022-10-17T02:02:56.638Z,101926.34
2022-10-17T02:05:26.905Z,101921.03
2022-10-17T02:07:53.480Z,101918.38
2022-10-17T02:10:31.044Z,101921.91
2022-10-17T02:13:21.885Z,101916.59
2022-10-17T02:16:09.194Z,101918.38
2022-10-17T02:19:02.039Z,101916.59
2022-10-17T02:21:53.194Z,101918.25
2022-10-17T02:24:25.620Z,101920.22
2022-10-17T02:27:09.858Z,101926.50
2022-10-17T02:29:50.474Z,101918.72
2022-10-17T02:32:42.744Z,101930.16
2022-10-17T02:35:12.295Z,101935.63
2022-10-17T02:37:39.725Z,101935.81
2022-10-17T02:40:07.553Z,101934.97
2022-10-17T02:42:35.234Z,101929.66
2022-10-17T02:45:02.997Z,101928.00
2022-10-17T02:47:36.247Z,101926.31
2022-10-17T02:50:03.056Z,101928.16
2022-10-17T02:52:43.906Z,101923.50
2022-10-17T02:55:19.289Z,101928.00
2022-10-17T02:57:52.898Z,101926.16
2022-10-17T03:00:20.380Z,101934.66
2022-10-17T03:02:49.233Z,101926.84
2022-10-17T03:05:21.900Z,101920.69
2022-10-17T03:07:48.829Z,101928.50
2022-10-17T03:10:15.712Z,101929.34
2022-10-17T03:12:42.336Z,101924.19
2022-10-17T03:15:09.643Z,101925.69
2022-10-17T03:17:36.357Z,101913.41
2022-10-17T03:20:04.005Z,101916.88
2022-10-17T03:22:31.206Z,101921.19
2022-10-17T03:24:58.504Z,101921.19
2022-10-17T03:27:25.593Z,101919.53
2022-10-17T03:29:52.172Z,101927.50
2022-10-17T03:32:18.711Z,101921.19
2022-10-17T03:34:45.284Z,101922.34
2022-10-17T03:37:11.858Z,101920.53
2022-10-17T03:39:38.434Z,101915.38
2022-10-17T03:42:05.042Z,101921.69
2022-10-17T03:44:31.625Z,101922.84
2022-10-17T03:46:58.230Z,101923.66
2022-10-17T03:49:24.879Z,101921.31
2022-10-17T03:51:51.669Z,101927.31
2022-10-17T03:54:18.254Z,101932.47
2022-10-17T03:56:44.882Z,101935.97
2022-10-17T03:59:14.358Z,101925.19
2022-10-17T04:01:41.292Z,101927.00
2022-10-17T04:04:08.736Z,101922.00
2022-10-17T04:06:35.864Z,101914.03
2022-10-17T04:09:02.990Z,101911.50
2022-10-17T04:11:29.690Z,101915.84
2022-10-17T04:13:57.662Z,101910.38
2022-10-17T04:16:24.447Z,101909.41
2022-10-17T04:18:58.604Z,101915.53
2022-10-17T04:21:26.495Z,101913.03
2022-10-17T04:23:57.106Z,101906.75
2022-10-17T04:26:24.208Z,101908.72
2022-10-17T04:28:51.420Z,101906.06
2022-10-17T04:31:18.804Z,101902.41
2022-10-17T04:33:49.963Z,101908.56
2022-10-17T04:36:19.514Z,101901.44
2022-10-17T04:38:46.494Z,101903.25
2022-10-17T04:41:16.132Z,101899.59
2022-10-17T04:43:45.614Z,101904.75
2022-10-17T04:46:15.870Z,101901.28
2022-10-17T04:48:42.956Z,101903.63
2022-10-17T04:51:13.130Z,101897.50
2022-10-17T04:53:40.308Z,101901.81
2022-10-17T04:56:15.268Z,101897.50
2022-10-17T04:58:42.601Z,101901.81
2022-10-17T05:01:11.171Z,101900.81
2022-10-17T05:03:37.837Z,101893.84
2022-10-17T05:06:09.706Z,101890.19
2022-10-17T05:08:36.487Z,101897.31
2022-10-17T05:11:03.357Z,101904.31
2022-10-17T05:13:29.958Z,101901.66
2022-10-17T05:16:00.835Z,101906.13
2022-10-17T05:18:28.393Z,101903.47
2022-10-17T05:20:54.988Z,101901.81
2022-10-17T05:23:21.569Z,101899.16
2022-10-17T05:25:48.179Z,101899.16
2022-10-17T05:28:14.823Z,101907.09
2022-10-17T05:30:41.383Z,101902.81
2022-10-17T05:33:07.953Z,101904.47
2022-10-17T05:35:34.550Z,101903.63
2022-10-17T05:38:01.656Z,101908.91
2022-10-17T05:40:28.249Z,101904.47
2022-10-17T05:42:54.801Z,101905.28
2022-10-17T05:45:21.394Z,101909.78
2022-10-17T05:47:47.978Z,101912.56
2022-10-17T05:50:14.770Z,101910.56
2022-10-17T05:52:42.921Z,101917.88
2022-10-17T05:55:12.909Z,101916.06
2022-10-17T05:57:39.470Z,101918.72
2022-10-17T06:00:06.734Z,101926.69
2022-10-17T06:02:33.605Z,101933.66
2022-10-17T06:05:00.389Z,101937.13
2022-10-17T06:07:26.943Z,101940.78
2022-10-17T06:09:53.595Z,101939.13
2022-10-17T06:12:20.185Z,101941.63
2022-10-17T06:14:46.798Z,101944.28
2022-10-17T06:17:16.090Z,101945.28
2022-10-17T06:19:44.731Z,101953.06
2022-10-17T06:22:11.656Z,101953.06
2022-10-17T06:24:38.259Z,101942.44
2022-10-17T06:27:09.326Z,101952.41
2022-10-17T06:29:38.645Z,101957.41
2022-10-17T06:32:06.333Z,101953.91
2022-10-17T06:34:33.400Z,101953.91
2022-10-17T06:36:59.956Z,101953.06
2022-10-17T06:39:33.656Z,101955.56
2022-10-17T06:42:01.122Z,101950.25
2022-10-17T06:44:31.570Z,101965.22
2022-10-17T06:46:59.171Z,101963.53
2022-10-17T06:49:26.061Z,101964.38
2022-10-17T06:51:53.045Z,101966.19
2022-10-17T06:54:19.797Z,101964.38
2022-10-17T06:56:46.366Z,101968.84
2022-10-17T06:59:13.020Z,101973.19
2022-10-17T07:01:41.819Z,101973.00
2022-10-17T07:04:11.211Z,101981.16
2022-10-17T07:06:38.475Z,101987.28
2022-10-17T07:09:06.989Z,101996.91
2022-10-17T07:11:36.991Z,101994.09
2022-10-17T07:14:03.580Z,101996.09
2022-10-17T07:16:30.226Z,101994.94
2022-10-17T07:18:56.807Z,102002.06
2022-10-17T07:21:23.583Z,102003.56
2022-10-17T07:23:50.204Z,102002.91
2022-10-17T07:26:17.772Z,102000.09
2022-10-17T07:28:46.299Z,101999.78
2022-10-17T07:31:18.215Z,102010.41
2022-10-17T07:36:13.148Z,102006.06
2022-10-17T07:38:40.032Z,102010.25
2022-10-17T07:41:08.423Z,101997.97
2022-10-17T07:43:36.508Z,102001.13
2022-10-17T07:46:04.335Z,101993.16
2022-10-17T07:48:30.929Z,102000.81
2022-10-17T07:50:57.719Z,102001.47
2022-10-17T07:53:24.293Z,102006.63
2022-10-17T07:55:51.419Z,102005.81
2022-10-17T07:58:18.272Z,102004.81
2022-10-17T08:00:48.310Z,102002.84
2022-10-17T08:03:15.383Z,102015.16
2022-10-17T08:05:42.037Z,102002.53
2022-10-17T08:08:08.718Z,102010.50
2022-10-17T08:10:35.299Z,102015.81
2022-10-17T08:13:01.949Z,102009.50
2022-10-17T08:15:31.710Z,102015.66
2022-10-17T08:17:59.059Z,102005.03
2022-10-17T08:20:25.785Z,102015.50
2022-10-17T08:22:53.723Z,102016.16
2022-10-17T08:25:20.647Z,102010.84
2022-10-17T08:27:47.358Z,102015.00
2022-10-17T08:30:13.930Z,102019.34
2022-10-17T08:32:40.925Z,102014.84
2022-10-17T08:35:07.795Z,102013.84
2022-10-17T08:37:34.594Z,102019.16
2022-10-17T08:40:01.153Z,102016.34
2022-10-17T08:43:00.055Z,102015.56
2022-10-17T08:45:40.696Z,102009.25
2022-10-17T08:48:13.850Z,102013.41
2022-10-17T08:50:54.526Z,102011.91
2022-10-17T08:53:41.518Z,102011.91
2022-10-17T08:56:19.884Z,102011.03
2022-10-17T08:58:51.480Z,102014.69
2022-10-17T09:01:40.114Z,102004.91
2022-10-17T09:04:09.558Z,102017.34
2022-10-17T09:07:00.304Z,102009.38
2022-10-17T09:09:50.400Z,102012.03
2022-10-17T09:12:45.657Z,102008.53
2022-10-17T09:15:46.271Z,102008.53
2022-10-17T09:18:22.395Z,102006.88
2022-10-17T09:20:55.043Z,102003.22
2022-10-17T09:23:25.759Z,102007.56
2022-10-17T09:25:58.689Z,102004.06
2022-10-17T09:28:31.292Z,102004.72
2022-10-17T09:31:20.621Z,102000.41
2022-10-17T09:33:54.358Z,102002.06
2022-10-17T09:36:25.832Z,102014.56
2022-10-17T09:38:57.781Z,102004.59
2022-10-17T09:41:47.570Z,102006.28
2022-10-17T09:44:22.025Z,102009.91
2022-10-17T09:47:16.964Z,102006.94
2022-10-17T09:49:47.593Z,102004.94
2022-10-17T09:52:17.683Z,102011.78
2022-10-17T09:54:50.949Z,102013.28
2022-10-17T09:57:19.340Z,102005.97
2022-10-17T09:59:49.051Z,102014.44
2022-10-17T10:02:21.411Z,102009.97
2022-10-17T10:05:05.189Z,102002.66
2022-10-17T10:07:38.197Z,101998.03
2022-10-17T10:10:08.423Z,101991.72
2022-10-17T10:12:39.096Z,101998.69
2022-10-17T10:15:41.423Z,101988.75
2022-10-17T10:18:37.288Z,101986.25
2022-10-17T10:21:20.043Z,101995.22
2022-10-17T10:24:09.104Z,102000.69
2022-10-17T10:26:41.536Z,102003.03
2022-10-17T10:29:20.598Z,101995.72
2022-10-17T10:31:47.675Z,101989.94
2022-10-17T10:34:28.800Z,101991.78
2022-10-17T10:36:59.086Z,101989.00
2022-10-17T10:39:33.653Z,101991.03
2022-10-17T10:42:01.722Z,101978.06
2022-10-17T10:44:30.867Z,101984.72
2022-10-17T10:47:16.851Z,101979.91
2022-10-17T10:49:44.085Z,101977.25
2022-10-17T10:52:18.498Z,101984.56
2022-10-17T10:54:54.030Z,101983.88
2022-10-17T10:57:21.704Z,101980.88
2022-10-17T10:59:51.203Z,101979.84
2022-10-17T11:02:23.708Z,101978.50
2022-10-17T11:05:00.814Z,101983.84
2022-10-17T11:07:34.661Z,101980.16
2022-10-17T11:10:25.506Z,101980.16
2022-10-17T11:13:01.556Z,101979.31
2022-10-17T11:15:49.361Z,101985.34
2022-10-17T11:18:24.933Z,101984.66
2022-10-17T11:21:16.483Z,101977.16
2022-10-17T11:23:58.659Z,101975.50
2022-10-17T11:26:32.440Z,101973.81
2022-10-17T11:29:03.203Z,101965.84
2022-10-17T11:31:36.472Z,101961.53
2022-10-17T11:34:03.019Z,101960.69
2022-10-17T11:36:35.382Z,101956.22
2022-10-17T11:39:06.409Z,101945.59
2022-10-17T11:41:51.055Z,101941.09
2022-10-17T11:44:34.170Z,101936.75
2022-10-17T11:47:04.433Z,101941.91
2022-10-17T11:49:39.861Z,101939.09
2022-10-17T11:52:43.965Z,101933.94
2022-10-17T11:55:16.173Z,101927.81
2022-10-17T11:58:08.894Z,101928.63
2022-10-17T12:00:42.770Z,101938.28
2022-10-17T12:03:35.076Z,101936.44
2022-10-17T12:06:19.208Z,101935.44
2022-10-17T12:08:51.688Z,101931.13
2022-10-17T12:11:45.800Z,101933.63
2022-10-17T12:14:45.107Z,101924.81
2022-10-17T12:17:39.134Z,101925.66
2022-10-17T12:20:21.333Z,101932.63
2022-10-17T12:22:49.076Z,101924.66
2022-10-17T12:25:21.726Z,101927.31
2022-10-17T12:27:50.135Z,101919.34
2022-10-17T12:30:23.309Z,101926.16
2022-10-17T12:33:22.160Z,101916.34
2022-10-17T12:35:51.058Z,101910.88
2022-10-17T12:38:17.578Z,101920.22
2022-10-17T12:40:48.490Z,101912.09
2022-10-17T12:43:15.566Z,101911.72
2022-10-17T12:45:52.021Z,101920.88
2022-10-17T12:48:38.866Z,101914.72
2022-10-17T12:54:08.916Z,101921.72
2022-10-17T12:56:43.314Z,101923.22
2022-10-17T12:59:27.403Z,101916.56
2022-10-17T13:01:57.649Z,101919.91
2022-10-17T13:04:24.979Z,101914.44
2022-10-17T13:06:54.255Z,101906.28
2022-10-17T13:09:25.531Z,101915.91
2022-10-17T13:11:52.986Z,101915.75
2022-10-17T13:14:21.754Z,101906.09
2022-10-17T13:16:57.677Z,101906.75
2022-10-17T13:19:46.092Z,101911.56
2022-10-17T13:22:21.003Z,101907.41
2022-10-17T13:24:48.778Z,101907.09
2022-10-17T13:27:27.812Z,101907.94
2022-10-17T13:29:58.760Z,101900.13
2022-10-17T13:32:27.693Z,101903.09
2022-10-17T13:35:09.967Z,101913.91
2022-10-17T13:37:37.062Z,101901.44
2022-10-17T13:40:16.178Z,101904.75
2022-10-17T13:42:44.560Z,101886.13
2022-10-17T13:45:24.498Z,101887.78
2022-10-17T13:47:51.329Z,101894.25
2022-10-17T13:50:43.642Z,101887.75
2022-10-17T13:53:24.630Z,101891.06
2022-10-17T13:56:27.315Z,101888.75
2022-10-17T13:58:58.429Z,101887.28
2022-10-17T14:01:27.511Z,101892.56
2022-10-17T14:04:07.948Z,101891.56
2022-10-17T14:06:47.556Z,101893.53
2022-10-17T14:09:20.530Z,101896.38
2022-10-17T14:11:59.422Z,101900.53
2022-10-17T14:14:26.492Z,101899.03
2022-10-17T14:16:53.142Z,101895.53
2022-10-17T14:19:24.955Z,101900.03
2022-10-17T14:21:57.083Z,101904.69
2022-10-17T14:24:23.637Z,101898.38
2022-10-17T14:26:53.861Z,101896.03
2022-10-17T14:29:50.708Z,101892.19
2022-10-17T14:32:18.039Z,101895.72
2022-10-17T14:34:46.581Z,101897.38
2022-10-17T14:37:32.407Z,101896.53
2022-10-17T14:40:00.597Z,101903.25
2022-10-17T14:42:27.227Z,101912.69
2022-10-17T14:44:54.863Z,101908.84
2022-10-17T14:47:43.978Z,101912.00
2022-10-17T14:50:10.752Z,101918.97
2022-10-17T14:52:38.941Z,101922.84
2022-10-17T14:55:23.943Z,101924.81
2022-10-17T14:57:50.687Z,101923.16
2022-10-17T15:00:19.088Z,101924.81
2022-10-17T15:02:46.504Z,101924.97
2022-10-17T15:05:13.926Z,101918.34
2022-10-17T15:07:41.482Z,101920.34
2022-10-17T15:10:23.514Z,101921.00
2022-10-17T15:12:58.809Z,101917.34
2022-10-17T15:15:31.897Z,101913.00
2022-10-17T15:17:59.130Z,101917.19
2022-10-17T15:20:28.093Z,101912.38
2022-10-17T15:22:55.313Z,101914.06
2022-10-17T15:25:21.972Z,101920.03
2022-10-17T15:27:48.555Z,101924.06
2022-10-17T15:30:24.177Z,101931.19
2022-10-17T15:32:52.534Z,101930.72
2022-10-17T15:35:19.989Z,101932.03
2022-10-17T15:37:46.887Z,101934.53
2022-10-17T15:40:19.526Z,101929.53
2022-10-17T15:42:46.356Z,101938.69
2022-10-17T15:45:17.800Z,101938.00
2022-10-17T15:47:55.457Z,101938.00
2022-10-17T15:50:22.165Z,101941.69
2022-10-17T15:52:51.114Z,101933.06
2022-10-17T15:55:18.214Z,101932.19
2022-10-17T15:57:46.361Z,101941.19
2022-10-17T16:00:16.993Z,101939.53
2022-10-17T16:02:44.044Z,101944.00
2022-10-17T16:05:16.922Z,101941.50
2022-10-17T16:07:46.179Z,101947.69
2022-10-17T16:10:16.486Z,101949.50
2022-10-17T16:12:43.359Z,101950.50
2022-10-17T16:15:13.637Z,101952.47
2022-10-17T16:17:40.368Z,101935.69
2022-10-17T16:20:07.689Z,101935.69
2022-10-17T16:22:38.275Z,101937.53
2022-10-17T16:25:10.215Z,101937.53
2022-10-17T16:27:37.513Z,101942.19
2022-10-17T16:30:06.289Z,101948.31
2022-10-17T16:32:33.287Z,101954.50
2022-10-17T16:35:00.101Z,101957.16
2022-10-17T16:37:26.975Z,101950.34
2022-10-17T16:39:53.689Z,101966.13
2022-10-17T16:42:21.146Z,101951.16
2022-10-17T16:44:48.825Z,101955.50
2022-10-17T16:47:16.441Z,101964.28
2022-10-17T16:49:45.261Z,101957.31
2022-10-17T16:52:12.457Z,101955.66
2022-10-17T16:54:39.027Z,101958.16
2022-10-17T16:57:05.643Z,101964.63
2022-10-17T16:59:32.249Z,101961.78
2022-10-17T17:01:58.850Z,101956.47
2022-10-17T17:04:25.518Z,101953.00
2022-10-17T17:06:52.089Z,101954.00
2022-10-17T17:09:18.711Z,101955.66
2022-10-17T17:11:45.253Z,101945.16
2022-10-17T17:14:12.203Z,101953.16
2022-10-17T17:16:38.838Z,101952.16
2022-10-17T17:19:11.502Z,101956.81
2022-10-17T17:21:38.168Z,101960.47
2022-10-17T17:24:05.731Z,101965.59
2022-10-17T17:26:37.284Z,101964.97
2022-10-17T17:29:04.165Z,101970.94
2022-10-17T17:31:33.135Z,101966.78
2022-10-17T17:34:00.221Z,101971.13
2022-10-17T17:36:33.124Z,101979.91
2022-10-17T17:39:01.177Z,101974.75
2022-10-17T17:41:28.517Z,101968.63
2022-10-17T17:43:55.822Z,101970.28
2022-10-17T17:46:23.476Z,101972.09
2022-10-17T17:48:50.806Z,101974.75
2022-10-17T17:51:25.398Z,101973.09
2022-10-17T17:53:55.153Z,101973.94
2022-10-17T17:56:24.211Z,101972.09
2022-10-17T17:58:58.568Z,101970.59
2022-10-17T18:01:27.643Z,101977.56
2022-10-17T18:03:55.516Z,101975.75
2022-10-17T18:06:22.934Z,101971.44
2022-10-17T18:08:51.868Z,101972.44
2022-10-17T18:11:21.239Z,101977.56
2022-10-17T18:13:53.761Z,101978.41
2022-10-17T18:16:20.326Z,101974.09
2022-10-17T18:18:46.922Z,101971.44
2022-10-17T18:21:14.254Z,101975.75
2022-10-17T18:23:42.101Z,101966.94
2022-10-17T18:26:09.363Z,101965.97
2022-10-17T18:28:37.433Z,101968.63
2022-10-17T18:31:06.568Z,101973.94
2022-10-17T18:33:33.633Z,101980.91
2022-10-17T18:36:07.100Z,101980.06
2022-10-17T18:38:33.873Z,101980.06
2022-10-17T18:41:11.924Z,101980.91
2022-10-17T18:43:40.534Z,101988.06
2022-10-17T18:46:12.434Z,101984.59
2022-10-17T18:48:44.652Z,101985.41
2022-10-17T18:51:12.446Z,101984.41
2022-10-17T18:53:41.072Z,101987.25
2022-10-17T18:56:08.229Z,101997.72
2022-10-17T18:58:34.834Z,101995.22
2022-10-17T19:01:06.958Z,101992.41
2022-10-17T19:03:33.737Z,102000.53
2022-10-17T19:06:04.829Z,102002.34
2022-10-17T19:08:31.439Z,102010.34
2022-10-17T19:10:58.018Z,102005.88
2022-10-17T19:13:24.741Z,102005.03
2022-10-17T19:15:51.303Z,102010.34
2022-10-17T19:18:17.857Z,102010.50
2022-10-17T19:20:45.939Z,102012.16
2022-10-17T19:23:12.606Z,102012.16
2022-10-17T19:25:39.396Z,102016.66
2022-10-17T19:28:05.927Z,102012.34
2022-10-17T19:30:32.488Z,102018.47
2022-10-17T19:32:59.056Z,102029.13
2022-10-17T19:35:25.613Z,102019.31
2022-10-17T19:37:52.171Z,102030.78
2022-10-17T19:40:18.857Z,102029.97
2022-10-17T19:42:45.397Z,102029.97
2022-10-17T19:45:11.971Z,102031.78
2022-10-17T19:47:39.485Z,102022.97
2022-10-17T19:50:06.807Z,102029.13
2022-10-17T19:52:33.654Z,102025.66
2022-10-17T19:55:00.338Z,102027.31
2022-10-17T19:57:26.885Z,102037.09
2022-10-17T19:59:55.853Z,102030.97
2022-10-17T20:02:22.880Z,102037.94
2022-10-17T20:04:54.651Z,102035.44
2022-10-17T20:07:33.152Z,102030.13
2022-10-17T20:09:59.701Z,102042.41
2022-10-17T20:12:26.302Z,102034.28
2022-10-17T20:14:52.885Z,102037.94
2022-10-17T20:17:19.478Z,102039.75
2022-10-17T20:19:46.105Z,102036.09
2022-10-17T20:22:12.676Z,102038.75
2022-10-17T20:24:39.310Z,102043.09
2022-10-17T20:27:05.924Z,102043.25
2022-10-17T20:29:32.546Z,102051.09
2022-10-17T20:31:59.213Z,102046.94
2022-10-17T20:34:25.792Z,102054.91
2022-10-17T20:36:52.354Z,102061.03
2022-10-17T20:39:20.660Z,102063.69
2022-10-17T20:41:47.591Z,102063.69
2022-10-17T20:44:14.172Z,102070.03
2022-10-17T20:46:45.312Z,102070.03
2022-10-17T20:49:24.233Z,102062.88
2022-10-17T20:51:50.830Z,102074.50
2022-10-17T20:54:17.434Z,102076.19
2022-10-17T20:56:44.072Z,102083.31
2022-10-17T20:59:12.690Z,102081.50
2022-10-17T21:01:39.367Z,102084.97
2022-10-17T21:04:33.313Z,102086.81
2022-10-17T21:06:53.551Z,102089.50
2022-10-17T21:09:20.895Z,102083.31
2022-10-17T21:11:48.431Z,102086.13
2022-10-17T21:14:16.745Z,102088.00
2022-10-17T21:16:43.635Z,102084.47
2022-10-17T21:19:10.959Z,102076.66
2022-10-17T21:21:39.748Z,102079.31
2022-10-17T21:24:11.234Z,102086.44
2022-10-17T21:26:38.073Z,102086.63
2022-10-17T21:29:05.780Z,102080.47
2022-10-17T21:31:34.493Z,102083.28
2022-10-17T21:34:05.769Z,102084.28
2022-10-17T21:36:32.373Z,102086.09
2022-10-17T21:38:59.148Z,102090.47
2022-10-17T21:41:27.663Z,102093.94
2022-10-17T21:44:02.829Z,102090.63
2022-10-17T21:46:29.505Z,102101.09
2022-10-17T21:48:56.562Z,102100.91
2022-10-17T21:51:24.617Z,102104.56
2022-10-17T21:53:52.409Z,102101.75
2022-10-17T21:56:20.999Z,102102.59
2022-10-17T21:58:48.359Z,102107.91
2022-10-17T22:01:17.426Z,102112.41
2022-10-17T22:03:49.185Z,102113.41
2022-10-17T22:06:38.795Z,102111.53
2022-10-17T22:09:06.075Z,102111.75
2022-10-17T22:11:35.032Z,102113.56
2022-10-17T22:14:04.603Z,102115.38
2022-10-17T22:16:31.759Z,102124.19
2022-10-17T22:19:06.150Z,102116.22
2022-10-17T22:21:34.995Z,102118.88
2022-10-17T22:24:03.617Z,102122.53
2022-10-17T22:26:31.701Z,102120.03
2022-10-17T22:28:58.612Z,102118.19
2022-10-17T22:31:25.306Z,102124.50
2022-10-17T22:33:52.004Z,102120.03
2022-10-17T22:36:18.595Z,102121.03
2022-10-17T22:38:45.343Z,102117.53
2022-10-17T22:41:11.920Z,102119.34
2022-10-17T22:43:38.507Z,102122.84
2022-10-17T22:46:06.606Z,102125.50
2022-10-17T22:48:33.449Z,102127.31
2022-10-17T22:51:00.440Z,102131.81
2022-10-17T22:53:27.330Z,102125.66
2022-10-17T22:55:55.995Z,102131.81
2022-10-17T22:58:23.195Z,102132.63
2022-10-17T23:00:50.772Z,102134.47
2022-10-17T23:03:18.121Z,102130.81
2022-10-17T23:05:45.186Z,102130.97
2022-10-17T23:08:12.458Z,102123.84
2022-10-17T23:10:39.489Z,102128.47
2022-10-17T23:13:06.130Z,102128.47
2022-10-17T23:15:33.163Z,102126.66
2022-10-17T23:18:00.810Z,102127.50
2022-10-17T23:20:28.825Z,102130.16
2022-10-17T23:22:55.624Z,102129.31
2022-10-17T23:25:22.419Z,102134.47
2022-10-17T23:27:48.999Z,102133.63
2022-10-17T23:30:15.594Z,102134.63
2022-10-17T23:32:42.386Z,102135.28
2022-10-17T23:35:09.615Z,102137.13
2022-10-17T23:37:36.634Z,102131.97
2022-10-17T23:40:04.834Z,102137.13
2022-10-17T23:42:31.881Z,102131.13
2022-10-17T23:44:58.461Z,102131.97
2022-10-17T23:47:25.140Z,102133.09
2022-10-17T23:49:51.769Z,102131.13
2022-10-17T23:52:18.333Z,102125.13
2022-10-17T23:54:45.093Z,102125.13
2022-10-17T23:57:11.754Z,102121.75
2022-10-17T23:59:38.339Z,102130.59
